Thunder radar more information blitzortung!


Radar de pluja more information rain snow radar


Visita la nostra xarxa de llocs de meteo:

Template documentation
and downloads

And another site



No particular awareness of the weather is required.    There are no Weather-warnings

Pagina Historial Weather Underground text

Diari Resum Juny 3, 2017 Unitats:  Tant    Imperial   Mètric
« Previous Dia
SegĂźent Dia »
Diari Setmana Mensual Anual Personalitzada
  Maxima: Minima: Media:
Temperatura: 81 °F /  27.2 °C 64.2 °F /  17.9 °C 73.2 °F /  22.9 °C
Punt de rosada: 63.9 °F /  17.7 °C 50.5 °F /  10.3 °C 57.9 °F /  14.4 °C
Humitat: 76 % 43 % 60 %
Wind Speed: 8.1 mph /  13.0 km/h - 3.1 mph /  5 km/h
RĂ fegues de vent: 8.1 mph /  13.0 km/h - -
Vent:- - SSW
Pression baro: 30 in /  1016.8 hPa 29.9 in /  1011.7 hPa -
Precipitacions: 0 in /  0.0 mm    
Historical Graphs
 
 
Dades de taula per Juny 3, 2017
Temps Temperatura Punt de rosada Pression baro Vent Wind Speed RĂ fegues de vent Humitat Rainfall Rate (Hourly)
00:02 69.3 °F /  20.7 °C 56.1 °F /  13.4 °C 30 in /  1015.8 hPa WSW 2.3 mph /  3.7 km/h 2.3 mph /  3.7 km/h 63 % 0 in /  0.0 mm
04:30 71.1 °F /  21.7 °C 61.2 °F /  16.2 °C 30 in /  1014.8 hPa SSW 3 mph /  4.8 km/h 4 mph /  6.4 km/h 71 % 0 in /  0.0 mm
04:40 71.8 °F /  22.1 °C 61.5 °F /  16.4 °C 30 in /  1014.8 hPa SW 2 mph /  3.2 km/h 4 mph /  6.4 km/h 70 % 0 in /  0.0 mm
04:50 73.6 °F /  23.1 °C 62.8 °F /  17.1 °C 30 in /  1014.8 hPa WSW 1 mph /  1.6 km/h 2 mph /  3.2 km/h 69 % 0 in /  0.0 mm
05:00 75.2 °F /  24.0 °C 63.1 °F /  17.3 °C 30 in /  1014.8 hPa WSW 2 mph /  3.2 km/h 3 mph /  4.8 km/h 66 % 0 in /  0.0 mm
05:10 75.6 °F /  24.2 °C 63 °F /  17.2 °C 30 in /  1014.8 hPa SW 1 mph /  1.6 km/h 4 mph /  6.4 km/h 65 % 0 in /  0.0 mm
05:20 75 °F /  23.9 °C 63 °F /  17.2 °C 30 in /  1014.8 hPa Calm   1 mph /  1.6 km/h 66 % 0 in /  0.0 mm
05:30 73.6 °F /  23.1 °C 61.9 °F /  16.6 °C 30 in /  1014.8 hPa South 2 mph /  3.2 km/h 4 mph /  6.4 km/h 67 % 0 in /  0.0 mm
05:40 73 °F /  22.8 °C 62.8 °F /  17.1 °C 29.9 in /  1013.8 hPa SSW 1 mph /  1.6 km/h 2 mph /  3.2 km/h 70 % 0 in /  0.0 mm
05:50 73.4 °F /  23.0 °C 62.2 °F /  16.8 °C 29.9 in /  1013.8 hPa SW 2 mph /  3.2 km/h 3 mph /  4.8 km/h 68 % 0 in /  0.0 mm
06:00 73.6 °F /  23.1 °C 62.4 °F /  16.9 °C 30 in /  1014.8 hPa SW 3 mph /  4.8 km/h 4 mph /  6.4 km/h 68 % 0 in /  0.0 mm
06:10 74.1 °F /  23.4 °C 62.4 °F /  16.9 °C 30 in /  1014.8 hPa WSW 1 mph /  1.6 km/h 3 mph /  4.8 km/h 67 % 0 in /  0.0 mm
06:20 74.1 °F /  23.4 °C 62.4 °F /  16.9 °C 30 in /  1014.8 hPa SW 2 mph /  3.2 km/h 6 mph /  9.7 km/h 67 % 0 in /  0.0 mm
06:30 73.8 °F /  23.2 °C 62.4 °F /  16.9 °C 30 in /  1015.8 hPa WSW 5 mph /  8.0 km/h 5 mph /  8.0 km/h 68 % 0 in /  0.0 mm
06:40 73.6 °F /  23.1 °C 62.8 °F /  17.1 °C 30 in /  1014.8 hPa WSW 3 mph /  4.8 km/h 4 mph /  6.4 km/h 69 % 0 in /  0.0 mm
06:50 73.9 °F /  23.3 °C 62.8 °F /  17.1 °C 30 in /  1014.8 hPa WSW 2 mph /  3.2 km/h 4 mph /  6.4 km/h 68 % 0 in /  0.0 mm
07:00 74.7 °F /  23.7 °C 61.7 °F /  16.5 °C 30 in /  1014.8 hPa SW 5 mph /  8.0 km/h 5 mph /  8.0 km/h 64 % 0 in /  0.0 mm
12:01 74.7 °F /  23.7 °C 61.7 °F /  16.5 °C 30 in /  1014.8 hPa SSW 5.8 mph /  9.3 km/h 5.8 mph /  9.3 km/h 64 % 0 in /  0.0 mm
12:06 74.5 °F /  23.6 °C 61.2 °F /  16.2 °C 30 in /  1015.8 hPa SSW 8.1 mph /  13.0 km/h 8.1 mph /  13.0 km/h 63 % 0 in /  0.0 mm
12:11 74.3 °F /  23.5 °C 61 °F /  16.1 °C 30 in /  1015.8 hPa WSW 5.8 mph /  9.3 km/h 5.8 mph /  9.3 km/h 63 % 0 in /  0.0 mm
12:16 74.1 °F /  23.4 °C 60.3 °F /  15.7 °C 30 in /  1015.8 hPa SW 8.1 mph /  13.0 km/h 8.1 mph /  13.0 km/h 62 % 0 in /  0.0 mm
12:21 74.3 °F /  23.5 °C 60.4 °F /  15.8 °C 30 in /  1014.8 hPa SSW 4.9 mph /  7.9 km/h 4.9 mph /  7.9 km/h 62 % 0 in /  0.0 mm
12:26 74.3 °F /  23.5 °C 60.1 °F /  15.6 °C 30 in /  1014.8 hPa SW 6.9 mph /  11.1 km/h 6.9 mph /  11.1 km/h 61 % 0 in /  0.0 mm
12:31 74.3 °F /  23.5 °C 59.5 °F /  15.3 °C 30 in /  1014.8 hPa SSE 3.5 mph /  5.6 km/h 3.5 mph /  5.6 km/h 60 % 0 in /  0.0 mm
12:36 74.1 °F /  23.4 °C 59.4 °F /  15.2 °C 30 in /  1014.8 hPa WSW 3.5 mph /  5.6 km/h 3.6 mph /  5.8 km/h 60 % 0 in /  0.0 mm
12:41 73.6 °F /  23.1 °C 59.7 °F /  15.4 °C 30 in /  1014.8 hPa NW 3.5 mph /  5.6 km/h 3.5 mph /  5.6 km/h 62 % 0 in /  0.0 mm
12:46 72.5 °F /  22.5 °C 58.6 °F /  14.8 °C 30 in /  1014.8 hPa WSW 4.3 mph /  6.9 km/h 4.3 mph /  6.9 km/h 62 % 0 in /  0.0 mm
12:51 72.1 °F /  22.3 °C 59.4 °F /  15.2 °C 30 in /  1014.8 hPa SSW 2.4 mph /  3.9 km/h 2.4 mph /  3.9 km/h 64 % 0 in /  0.0 mm
12:56 71.6 °F /  22.0 °C 59.2 °F /  15.1 °C 30 in /  1014.8 hPa West 2.9 mph /  4.7 km/h 2.9 mph /  4.7 km/h 65 % 0 in /  0.0 mm
13:01 71.2 °F /  21.8 °C 58.8 °F /  14.9 °C 30 in /  1014.8 hPa WSW 3.8 mph /  6.1 km/h 3.8 mph /  6.1 km/h 65 % 0 in /  0.0 mm
13:06 70.7 °F /  21.5 °C 58.5 °F /  14.7 °C 30 in /  1014.8 hPa WSW 5.8 mph /  9.3 km/h 5.8 mph /  9.3 km/h 65 % 0 in /  0.0 mm
13:11 70.5 °F /  21.4 °C 59.9 °F /  15.5 °C 30 in /  1014.8 hPa South 1.2 mph /  1.9 km/h 1.2 mph /  1.9 km/h 69 % 0 in /  0.0 mm
13:16 70.2 °F /  21.2 °C 59.5 °F /  15.3 °C 30 in /  1014.8 hPa WSW 3.5 mph /  5.6 km/h 3.5 mph /  5.6 km/h 69 % 0 in /  0.0 mm
13:21 70 °F /  21.1 °C 59.4 °F /  15.2 °C 30 in /  1014.8 hPa SW 3.5 mph /  5.6 km/h 3.5 mph /  5.6 km/h 69 % 0 in /  0.0 mm
13:26 70.2 °F /  21.2 °C 59.9 °F /  15.5 °C 30 in /  1014.8 hPa WSW 3.5 mph /  5.6 km/h 3.5 mph /  5.6 km/h 70 % 0 in /  0.0 mm
13:31 70.5 °F /  21.4 °C 60.6 °F /  15.9 °C 30 in /  1014.8 hPa SSW 2.4 mph /  3.9 km/h 2.6 mph /  4.2 km/h 71 % 0 in /  0.0 mm
13:36 70.5 °F /  21.4 °C 60.3 °F /  15.7 °C 30 in /  1014.8 hPa SSW 3.5 mph /  5.6 km/h 3.5 mph /  5.6 km/h 70 % 0 in /  0.0 mm
13:41 70.7 °F /  21.5 °C 60.4 °F /  15.8 °C 30 in /  1014.8 hPa WSW 3.5 mph /  5.6 km/h 3.5 mph /  5.6 km/h 70 % 0 in /  0.0 mm
13:46 71.1 °F /  21.7 °C 60.8 °F /  16.0 °C 30 in /  1014.8 hPa WSW 2.3 mph /  3.7 km/h 2.3 mph /  3.7 km/h 70 % 0 in /  0.0 mm
13:51 71.6 °F /  22.0 °C 61 °F /  16.1 °C 30 in /  1014.8 hPa WSW 2.3 mph /  3.7 km/h 2.3 mph /  3.7 km/h 69 % 0 in /  0.0 mm
13:56 71.6 °F /  22.0 °C 61 °F /  16.1 °C 30 in /  1014.8 hPa WSW 3.5 mph /  5.6 km/h 3.5 mph /  5.6 km/h 69 % 0 in /  0.0 mm
14:01 71.6 °F /  22.0 °C 61.3 °F /  16.3 °C 30 in /  1014.8 hPa WSW 5.6 mph /  9.0 km/h 5.6 mph /  9.0 km/h 70 % 0 in /  0.0 mm
14:06 71.2 °F /  21.8 °C 61.3 °F /  16.3 °C 30 in /  1015.8 hPa West 5.6 mph /  9.0 km/h 5.6 mph /  9.0 km/h 71 % 0 in /  0.0 mm
14:11 71.2 °F /  21.8 °C 61.3 °F /  16.3 °C 30 in /  1015.8 hPa SW 3.5 mph /  5.6 km/h 3.5 mph /  5.6 km/h 71 % 0 in /  0.0 mm
14:21 71.6 °F /  22.0 °C 61.7 °F /  16.5 °C 30 in /  1015.8 hPa SW 2.3 mph /  3.7 km/h 2.3 mph /  3.7 km/h 71 % 0 in /  0.0 mm
14:26 72 °F /  22.2 °C 62.1 °F /  16.7 °C 30 in /  1015.8 hPa SW 3.5 mph /  5.6 km/h 3.5 mph /  5.6 km/h 71 % 0 in /  0.0 mm
14:31 72.3 °F /  22.4 °C 62.4 °F /  16.9 °C 30 in /  1015.8 hPa SW 2.9 mph /  4.7 km/h 2.9 mph /  4.7 km/h 71 % 0 in /  0.0 mm
14:36 72.3 °F /  22.4 °C 62.4 °F /  16.9 °C 30 in /  1015.8 hPa SW 2.3 mph /  3.7 km/h 2.4 mph /  3.9 km/h 71 % 0 in /  0.0 mm
14:41 72.3 °F /  22.4 °C 62.8 °F /  17.1 °C 30 in /  1015.8 hPa WSW 2.3 mph /  3.7 km/h   72 % 0 in /  0.0 mm
14:46 72.3 °F /  22.4 °C 62.8 °F /  17.1 °C 30 in /  1015.8 hPa SW 2.4 mph /  3.9 km/h 2.4 mph /  3.9 km/h 72 % 0 in /  0.0 mm
14:51 72.1 °F /  22.3 °C 62.6 °F /  17.0 °C 30 in /  1015.8 hPa SW 4.9 mph /  7.9 km/h 4.9 mph /  7.9 km/h 72 % 0 in /  0.0 mm
14:56 72.3 °F /  22.4 °C 63.1 °F /  17.3 °C 30 in /  1015.8 hPa SSW 2.3 mph /  3.7 km/h 2.3 mph /  3.7 km/h 73 % 0 in /  0.0 mm
15:01 72.7 °F /  22.6 °C 63.5 °F /  17.5 °C 30 in /  1015.8 hPa WSW 3.5 mph /  5.6 km/h 3.5 mph /  5.6 km/h 73 % 0 in /  0.0 mm
15:06 73 °F /  22.8 °C 63.9 °F /  17.7 °C 30 in /  1015.8 hPa West 3.5 mph /  5.6 km/h 3.5 mph /  5.6 km/h 73 % 0 in /  0.0 mm
15:11 73.4 °F /  23.0 °C 63 °F /  17.2 °C 30 in /  1015.8 hPa SW 5.6 mph /  9.0 km/h 5.6 mph /  9.0 km/h 70 % 0 in /  0.0 mm
15:16 73.4 °F /  23.0 °C 62.2 °F /  16.8 °C 30 in /  1015.8 hPa WSW 4.6 mph /  7.4 km/h 4.6 mph /  7.4 km/h 68 % 0 in /  0.0 mm
15:21 73.2 °F /  22.9 °C 61.5 °F /  16.4 °C 30 in /  1015.8 hPa West 4.6 mph /  7.4 km/h 4.6 mph /  7.4 km/h 67 % 0 in /  0.0 mm
15:27 73.4 °F /  23.0 °C 61.9 °F /  16.6 °C 30 in /  1015.8 hPa West 2.6 mph /  4.2 km/h 2.6 mph /  4.2 km/h 67 % 0 in /  0.0 mm
15:32 73.2 °F /  22.9 °C 61.5 °F /  16.4 °C 30 in /  1015.8 hPa WSW 2.3 mph /  3.7 km/h 2.3 mph /  3.7 km/h 67 % 0 in /  0.0 mm
15:37 73 °F /  22.8 °C 61 °F /  16.1 °C 30 in /  1014.8 hPa West 2.4 mph /  3.9 km/h 2.4 mph /  3.9 km/h 66 % 0 in /  0.0 mm
15:42 73 °F /  22.8 °C 60.6 °F /  15.9 °C 30 in /  1014.8 hPa WSW 3.5 mph /  5.6 km/h 3.5 mph /  5.6 km/h 65 % 0 in /  0.0 mm
15:47 73.2 °F /  22.9 °C 60.6 °F /  15.9 °C 30 in /  1014.8 hPa South 2.3 mph /  3.7 km/h 2.3 mph /  3.7 km/h 65 % 0 in /  0.0 mm
15:52 73.2 °F /  22.9 °C 60.6 °F /  15.9 °C 30 in /  1014.8 hPa West 3.5 mph /  5.6 km/h 3.5 mph /  5.6 km/h 65 % 0 in /  0.0 mm
15:57 73.2 °F /  22.9 °C 60.3 °F /  15.7 °C 30 in /  1014.8 hPa WNW 2.3 mph /  3.7 km/h 2.3 mph /  3.7 km/h 64 % 0 in /  0.0 mm
16:02 73.4 °F /  23.0 °C 60.1 °F /  15.6 °C 30 in /  1014.8 hPa NNW 2.3 mph /  3.7 km/h 2.3 mph /  3.7 km/h 63 % 0 in /  0.0 mm
16:07 74.3 °F /  23.5 °C 60.4 °F /  15.8 °C 29.9 in /  1013.8 hPa ENE 2.3 mph /  3.7 km/h 2.3 mph /  3.7 km/h 62 % 0 in /  0.0 mm
16:12 74.5 °F /  23.6 °C 60.1 °F /  15.6 °C 29.9 in /  1013.8 hPa NW 4 mph /  6.4 km/h 4 mph /  6.4 km/h 61 % 0 in /  0.0 mm
16:17 74.3 °F /  23.5 °C 59.5 °F /  15.3 °C 29.9 in /  1013.8 hPa ENE 3.5 mph /  5.6 km/h 3.5 mph /  5.6 km/h 60 % 0 in /  0.0 mm
16:22 74.5 °F /  23.6 °C 59.7 °F /  15.4 °C 29.9 in /  1013.8 hPa NNE 3.1 mph /  5.0 km/h 3.1 mph /  5.0 km/h 60 % 0 in /  0.0 mm
16:27 75.4 °F /  24.1 °C 60.1 °F /  15.6 °C 29.9 in /  1013.8 hPa NW 2.4 mph /  3.9 km/h 2.4 mph /  3.9 km/h 59 % 0 in /  0.0 mm
16:32 76.3 °F /  24.6 °C 61 °F /  16.1 °C 29.9 in /  1013.8 hPa SW 3.5 mph /  5.6 km/h 3.5 mph /  5.6 km/h 59 % 0 in /  0.0 mm
16:37 77.2 °F /  25.1 °C 60.3 °F /  15.7 °C 29.9 in /  1013.8 hPa WSW 3.5 mph /  5.6 km/h 3.5 mph /  5.6 km/h 56 % 0 in /  0.0 mm
16:42 77.5 °F /  25.3 °C 60.1 °F /  15.6 °C 29.9 in /  1013.8 hPa WNW 4.6 mph /  7.4 km/h 4.6 mph /  7.4 km/h 55 % 0 in /  0.0 mm
16:47 77.5 °F /  25.3 °C 60.1 °F /  15.6 °C 29.9 in /  1013.8 hPa North 2.4 mph /  3.9 km/h   55 % 0 in /  0.0 mm
16:52 77 °F /  25.0 °C 59.5 °F /  15.3 °C 29.9 in /  1013.8 hPa ESE 2.3 mph /  3.7 km/h 2.3 mph /  3.7 km/h 55 % 0 in /  0.0 mm
16:57 77.5 °F /  25.3 °C 59.5 °F /  15.3 °C 29.9 in /  1013.8 hPa SW 2.4 mph /  3.9 km/h 2.4 mph /  3.9 km/h 54 % 0 in /  0.0 mm
17:02 77 °F /  25.0 °C 58.6 °F /  14.8 °C 29.9 in /  1013.8 hPa South 2.3 mph /  3.7 km/h 2.3 mph /  3.7 km/h 53 % 0 in /  0.0 mm
17:07 77.5 °F /  25.3 °C 59.2 °F /  15.1 °C 29.9 in /  1013.8 hPa WSW 6.2 mph /  10.0 km/h   53 % 0 in /  0.0 mm
17:12 77.9 °F /  25.5 °C 59.4 °F /  15.2 °C 29.9 in /  1013.8 hPa WSW 3.5 mph /  5.6 km/h 3.5 mph /  5.6 km/h 53 % 0 in /  0.0 mm
17:17 78.3 °F /  25.7 °C 59.7 °F /  15.4 °C 29.9 in /  1013.8 hPa WSW 3.5 mph /  5.6 km/h 3.5 mph /  5.6 km/h 53 % 0 in /  0.0 mm
17:22 78.4 °F /  25.8 °C 59.9 °F /  15.5 °C 29.9 in /  1012.8 hPa WSW 2.3 mph /  3.7 km/h 2.4 mph /  3.9 km/h 53 % 0 in /  0.0 mm
17:27 78.1 °F /  25.6 °C 59.5 °F /  15.3 °C 29.9 in /  1012.8 hPa NW 2.3 mph /  3.7 km/h 2.3 mph /  3.7 km/h 53 % 0 in /  0.0 mm
17:32 78.1 °F /  25.6 °C 59.5 °F /  15.3 °C 29.9 in /  1012.8 hPa West 3.5 mph /  5.6 km/h 3.5 mph /  5.6 km/h 53 % 0 in /  0.0 mm
17:37 78.1 °F /  25.6 °C 59.5 °F /  15.3 °C 29.9 in /  1012.8 hPa SW 3.5 mph /  5.6 km/h 3.5 mph /  5.6 km/h 53 % 0 in /  0.0 mm
17:42 78.1 °F /  25.6 °C 59 °F /  15.0 °C 29.9 in /  1012.8 hPa West 3.5 mph /  5.6 km/h 3.5 mph /  5.6 km/h 52 % 0 in /  0.0 mm
17:47 78.8 °F /  26.0 °C 59.7 °F /  15.4 °C 29.9 in /  1012.8 hPa West 5.4 mph /  8.7 km/h 5.4 mph /  8.7 km/h 52 % 0 in /  0.0 mm
17:52 79.3 °F /  26.3 °C 60.3 °F /  15.7 °C 29.9 in /  1012.8 hPa SW 3.5 mph /  5.6 km/h 3.5 mph /  5.6 km/h 52 % 0 in /  0.0 mm
17:57 79.7 °F /  26.5 °C 60.4 °F /  15.8 °C 29.9 in /  1012.8 hPa Calm     52 % 0 in /  0.0 mm
18:02 80.4 °F /  26.9 °C 60.6 °F /  15.9 °C 29.9 in /  1012.8 hPa SW 2.3 mph /  3.7 km/h 2.3 mph /  3.7 km/h 51 % 0 in /  0.0 mm
18:04 80.4 °F /  26.9 °C 60.6 °F /  15.9 °C 29.9 in /  1012.8 hPa West 3.5 mph /  5.6 km/h 3.5 mph /  5.6 km/h 51 % 0 in /  0.0 mm
18:09 80.4 °F /  26.9 °C 60.1 °F /  15.6 °C 29.9 in /  1012.8 hPa SW 2.3 mph /  3.7 km/h 2.4 mph /  3.9 km/h 50 % 0 in /  0.0 mm
18:14 80.4 °F /  26.9 °C 60.1 °F /  15.6 °C 29.9 in /  1012.8 hPa SW 4.6 mph /  7.4 km/h 4.6 mph /  7.4 km/h 50 % 0 in /  0.0 mm
18:19 79.7 °F /  26.5 °C 59.4 °F /  15.2 °C 29.9 in /  1011.7 hPa SW 3.5 mph /  5.6 km/h 3.5 mph /  5.6 km/h 50 % 0 in /  0.0 mm
18:24 79.7 °F /  26.5 °C 59.4 °F /  15.2 °C 29.9 in /  1011.7 hPa West 3.5 mph /  5.6 km/h 3.5 mph /  5.6 km/h 50 % 0 in /  0.0 mm
18:29 79.9 °F /  26.6 °C 59 °F /  15.0 °C 29.9 in /  1011.7 hPa SW 3.5 mph /  5.6 km/h 3.5 mph /  5.6 km/h 49 % 0 in /  0.0 mm
18:34 80.2 °F /  26.8 °C 59.4 °F /  15.2 °C 29.9 in /  1011.7 hPa SW 2.3 mph /  3.7 km/h 2.3 mph /  3.7 km/h 49 % 0 in /  0.0 mm
18:39 80.2 °F /  26.8 °C 58.8 °F /  14.9 °C 29.9 in /  1011.7 hPa WSW 5.8 mph /  9.3 km/h 5.8 mph /  9.3 km/h 48 % 0 in /  0.0 mm
18:44 80.4 °F /  26.9 °C 58.3 °F /  14.6 °C 29.9 in /  1011.7 hPa West 3.5 mph /  5.6 km/h 3.5 mph /  5.6 km/h 47 % 0 in /  0.0 mm
18:49 80.8 °F /  27.1 °C 58.1 °F /  14.5 °C 29.9 in /  1011.7 hPa West 3.5 mph /  5.6 km/h 3.5 mph /  5.6 km/h 46 % 0 in /  0.0 mm
18:54 81 °F /  27.2 °C 58.3 °F /  14.6 °C 29.9 in /  1011.7 hPa SSW 5.8 mph /  9.3 km/h 5.8 mph /  9.3 km/h 46 % 0 in /  0.0 mm
18:59 80.4 °F /  26.9 °C 57 °F /  13.9 °C 29.9 in /  1011.7 hPa SSE 5.8 mph /  9.3 km/h 5.8 mph /  9.3 km/h 45 % 0 in /  0.0 mm
19:04 80.4 °F /  26.9 °C 57 °F /  13.9 °C 29.9 in /  1012.8 hPa SSW 4.6 mph /  7.4 km/h 4.6 mph /  7.4 km/h 45 % 0 in /  0.0 mm
19:09 80.4 °F /  26.9 °C 56.5 °F /  13.6 °C 29.9 in /  1012.8 hPa WSW 4.6 mph /  7.4 km/h 4.6 mph /  7.4 km/h 44 % 0 in /  0.0 mm
19:10 68 °F /  20.0 °C 50.7 °F /  10.4 °C 30 in /  1016.8 hPa NE 2 mph /  3.2 km/h 2 mph /  3.2 km/h 54 % 0 in /  0.0 mm
19:14 79.9 °F /  26.6 °C 55.4 °F /  13.0 °C 29.9 in /  1012.8 hPa South 5.8 mph /  9.3 km/h 5.8 mph /  9.3 km/h 43 % 0 in /  0.0 mm
19:19 80.1 °F /  26.7 °C 56.1 °F /  13.4 °C 29.9 in /  1012.8 hPa SW 4 mph /  6.4 km/h 4 mph /  6.4 km/h 44 % 0 in /  0.0 mm
19:20 67.8 °F /  19.9 °C 53.1 °F /  11.7 °C 30 in /  1016.8 hPa NE 2 mph /  3.2 km/h 4 mph /  6.4 km/h 59 % 0 in /  0.0 mm
19:24 79.7 °F /  26.5 °C 55.2 °F /  12.9 °C 29.9 in /  1012.8 hPa South 6 mph /  9.7 km/h 6 mph /  9.7 km/h 43 % 0 in /  0.0 mm
19:29 79.5 °F /  26.4 °C 55 °F /  12.8 °C 29.9 in /  1012.8 hPa SW 3.5 mph /  5.6 km/h 3.5 mph /  5.6 km/h 43 % 0 in /  0.0 mm
19:30 67.5 °F /  19.7 °C 54.9 °F /  12.7 °C 30 in /  1016.8 hPa ENE 2 mph /  3.2 km/h 4 mph /  6.4 km/h 64 % 0 in /  0.0 mm
19:39 79.2 °F /  26.2 °C 54.7 °F /  12.6 °C 29.9 in /  1013.8 hPa SW 3.5 mph /  5.6 km/h 3.5 mph /  5.6 km/h 43 % 0 in /  0.0 mm
19:40 67.1 °F /  19.5 °C 55.8 °F /  13.2 °C 30 in /  1016.8 hPa ENE 3 mph /  4.8 km/h 3 mph /  4.8 km/h 67 % 0 in /  0.0 mm
19:44 78.8 °F /  26.0 °C 55 °F /  12.8 °C 29.9 in /  1013.8 hPa SSW 4.6 mph /  7.4 km/h 4.6 mph /  7.4 km/h 44 % 0 in /  0.0 mm
19:49 78.4 °F /  25.8 °C 54.7 °F /  12.6 °C 29.9 in /  1013.8 hPa SW 3.5 mph /  5.6 km/h 3.5 mph /  5.6 km/h 44 % 0 in /  0.0 mm
19:50 66.7 °F /  19.3 °C 56.1 °F /  13.4 °C 30 in /  1016.8 hPa ENE 3 mph /  4.8 km/h 4 mph /  6.4 km/h 69 % 0 in /  0.0 mm
19:54 78.1 °F /  25.6 °C 54.3 °F /  12.4 °C 29.9 in /  1013.8 hPa SW 4.6 mph /  7.4 km/h 4.6 mph /  7.4 km/h 44 % 0 in /  0.0 mm
19:59 77.7 °F /  25.4 °C 54.1 °F /  12.3 °C 29.9 in /  1013.8 hPa South 5.8 mph /  9.3 km/h 5.8 mph /  9.3 km/h 44 % 0 in /  0.0 mm
20:00 66.6 °F /  19.2 °C 56.8 °F /  13.8 °C 30 in /  1016.8 hPa ENE 1 mph /  1.6 km/h 6 mph /  9.7 km/h 71 % 0 in /  0.0 mm
20:04 77.4 °F /  25.2 °C 54.3 °F /  12.4 °C 29.9 in /  1013.8 hPa WSW 3.5 mph /  5.6 km/h 3.5 mph /  5.6 km/h 45 % 0 in /  0.0 mm
20:09 77 °F /  25.0 °C 54 °F /  12.2 °C 29.9 in /  1013.8 hPa SW 3.6 mph /  5.8 km/h 3.6 mph /  5.8 km/h 45 % 0 in /  0.0 mm
20:10 66.2 °F /  19.0 °C 56.8 °F /  13.8 °C 30 in /  1016.8 hPa NE 3 mph /  4.8 km/h 4 mph /  6.4 km/h 72 % 0 in /  0.0 mm
20:14 76.6 °F /  24.8 °C 54.3 °F /  12.4 °C 29.9 in /  1013.8 hPa SW 4.6 mph /  7.4 km/h 4.6 mph /  7.4 km/h 46 % 0 in /  0.0 mm
20:19 76.5 °F /  24.7 °C 54.7 °F /  12.6 °C 29.9 in /  1013.8 hPa SW 2.3 mph /  3.7 km/h 2.3 mph /  3.7 km/h 47 % 0 in /  0.0 mm
20:20 66.2 °F /  19.0 °C 56.8 °F /  13.8 °C 30 in /  1016.8 hPa ENE 3 mph /  4.8 km/h 6 mph /  9.7 km/h 72 % 0 in /  0.0 mm
20:24 76.3 °F /  24.6 °C 54.7 °F /  12.6 °C 29.9 in /  1013.8 hPa SW 3.5 mph /  5.6 km/h 3.5 mph /  5.6 km/h 47 % 0 in /  0.0 mm
20:29 76.1 °F /  24.5 °C 55 °F /  12.8 °C 29.9 in /  1013.8 hPa SW 1.6 mph /  2.6 km/h   48 % 0 in /  0.0 mm
20:30 66 °F /  18.9 °C 57.6 °F /  14.2 °C 30 in /  1016.8 hPa NE 3 mph /  4.8 km/h 4 mph /  6.4 km/h 74 % 0 in /  0.0 mm
20:34 75.7 °F /  24.3 °C 54.7 °F /  12.6 °C 29.9 in /  1013.8 hPa SSW 4.6 mph /  7.4 km/h 4.6 mph /  7.4 km/h 48 % 0 in /  0.0 mm
20:39 75.4 °F /  24.1 °C 54.9 °F /  12.7 °C 29.9 in /  1013.8 hPa WSW 3.5 mph /  5.6 km/h 3.8 mph /  6.1 km/h 49 % 0 in /  0.0 mm
20:40 66 °F /  18.9 °C 57.9 °F /  14.4 °C 30 in /  1016.8 hPa NE 3 mph /  4.8 km/h 4 mph /  6.4 km/h 75 % 0 in /  0.0 mm
20:44 75.4 °F /  24.1 °C 54.9 °F /  12.7 °C 29.9 in /  1013.8 hPa WSW 3.5 mph /  5.6 km/h 3.5 mph /  5.6 km/h 49 % 0 in /  0.0 mm
20:49 75.2 °F /  24.0 °C 55.2 °F /  12.9 °C 29.9 in /  1013.8 hPa SW 3.5 mph /  5.6 km/h 3.5 mph /  5.6 km/h 50 % 0 in /  0.0 mm
20:50 66 °F /  18.9 °C 57.6 °F /  14.2 °C 30 in /  1016.8 hPa ENE 3 mph /  4.8 km/h 3 mph /  4.8 km/h 74 % 0 in /  0.0 mm
20:54 75 °F /  23.9 °C 55 °F /  12.8 °C 29.9 in /  1013.8 hPa WSW 2.9 mph /  4.7 km/h 2.9 mph /  4.7 km/h 50 % 0 in /  0.0 mm
20:59 74.7 °F /  23.7 °C 55.2 °F /  12.9 °C 29.9 in /  1013.8 hPa West 2.4 mph /  3.9 km/h 2.4 mph /  3.9 km/h 51 % 0 in /  0.0 mm
21:00 65.8 °F /  18.8 °C 57.7 °F /  14.3 °C 30 in /  1016.8 hPa ENE 2 mph /  3.2 km/h 3 mph /  4.8 km/h 75 % 0 in /  0.0 mm
21:04 74.5 °F /  23.6 °C 55.2 °F /  12.9 °C 29.9 in /  1013.8 hPa SSW 2.3 mph /  3.7 km/h 2.3 mph /  3.7 km/h 51 % 0 in /  0.0 mm
21:09 74.3 °F /  23.5 °C 55 °F /  12.8 °C 29.9 in /  1013.8 hPa WSW 3.5 mph /  5.6 km/h 3.5 mph /  5.6 km/h 51 % 0 in /  0.0 mm
21:10 65.7 °F /  18.7 °C 57.6 °F /  14.2 °C 30 in /  1016.8 hPa ENE 1 mph /  1.6 km/h 3 mph /  4.8 km/h 75 % 0 in /  0.0 mm
21:14 73.9 °F /  23.3 °C 55.2 °F /  12.9 °C 29.9 in /  1013.8 hPa SSW 3.6 mph /  5.8 km/h 3.6 mph /  5.8 km/h 52 % 0 in /  0.0 mm
21:19 73.9 °F /  23.3 °C 55.2 °F /  12.9 °C 29.9 in /  1013.8 hPa WSW 5.8 mph /  9.3 km/h 5.8 mph /  9.3 km/h 52 % 0 in /  0.0 mm
21:20 65.8 °F /  18.8 °C 57.7 °F /  14.3 °C 30 in /  1016.8 hPa ENE 3 mph /  4.8 km/h 3 mph /  4.8 km/h 75 % 0 in /  0.0 mm
21:24 73.8 °F /  23.2 °C 55.6 °F /  13.1 °C 29.9 in /  1013.8 hPa WSW 3.5 mph /  5.6 km/h 3.5 mph /  5.6 km/h 53 % 0 in /  0.0 mm
21:29 73.8 °F /  23.2 °C 55.6 °F /  13.1 °C 29.9 in /  1013.8 hPa West 4.6 mph /  7.4 km/h 4.6 mph /  7.4 km/h 53 % 0 in /  0.0 mm
21:30 66 °F /  18.9 °C 57.9 °F /  14.4 °C 30 in /  1016.8 hPa ENE 2 mph /  3.2 km/h 3 mph /  4.8 km/h 75 % 0 in /  0.0 mm
21:34 73.9 °F /  23.3 °C 55.8 °F /  13.2 °C 30 in /  1014.8 hPa WNW 8.1 mph /  13.0 km/h 8.1 mph /  13.0 km/h 53 % 0 in /  0.0 mm
21:39 73.4 °F /  23.0 °C 54.7 °F /  12.6 °C 30 in /  1014.8 hPa WNW 8.1 mph /  13.0 km/h 8.1 mph /  13.0 km/h 52 % 0 in /  0.0 mm
21:40 66 °F /  18.9 °C 58.3 °F /  14.6 °C 30 in /  1016.8 hPa East 2 mph /  3.2 km/h 4 mph /  6.4 km/h 76 % 0 in /  0.0 mm
21:44 73.2 °F /  22.9 °C 55 °F /  12.8 °C 30 in /  1014.8 hPa West 4.6 mph /  7.4 km/h 4.6 mph /  7.4 km/h 53 % 0 in /  0.0 mm
21:49 72.9 °F /  22.7 °C 54.1 °F /  12.3 °C 30 in /  1014.8 hPa WSW 5.8 mph /  9.3 km/h 5.8 mph /  9.3 km/h 52 % 0 in /  0.0 mm
21:50 66 °F /  18.9 °C 58.3 °F /  14.6 °C 30 in /  1016.8 hPa East 1 mph /  1.6 km/h 2 mph /  3.2 km/h 76 % 0 in /  0.0 mm
21:54 72.7 °F /  22.6 °C 54 °F /  12.2 °C 30 in /  1014.8 hPa North 5.8 mph /  9.3 km/h 5.8 mph /  9.3 km/h 52 % 0 in /  0.0 mm
21:59 72.3 °F /  22.4 °C 53.8 °F /  12.1 °C 30 in /  1014.8 hPa WSW 4.6 mph /  7.4 km/h 4.6 mph /  7.4 km/h 52 % 0 in /  0.0 mm
22:00 65.8 °F /  18.8 °C 58.1 °F /  14.5 °C 30 in /  1016.8 hPa East 1 mph /  1.6 km/h 2 mph /  3.2 km/h 76 % 0 in /  0.0 mm
22:04 72.1 °F /  22.3 °C 53.4 °F /  11.9 °C 30 in /  1014.8 hPa NE 2.3 mph /  3.7 km/h 2.3 mph /  3.7 km/h 52 % 0 in /  0.0 mm
22:09 72 °F /  22.2 °C 52.9 °F /  11.6 °C 30 in /  1014.8 hPa ENE 3.5 mph /  5.6 km/h 3.5 mph /  5.6 km/h 51 % 0 in /  0.0 mm
22:10 65.7 °F /  18.7 °C 57.6 °F /  14.2 °C 30 in /  1016.8 hPa ENE 1 mph /  1.6 km/h 2 mph /  3.2 km/h 75 % 0 in /  0.0 mm
22:14 71.8 °F /  22.1 °C 52.7 °F /  11.5 °C 30 in /  1014.8 hPa NE 2.9 mph /  4.7 km/h 2.9 mph /  4.7 km/h 51 % 0 in /  0.0 mm
22:19 71.6 °F /  22.0 °C 52 °F /  11.1 °C 30 in /  1015.8 hPa SW 2.3 mph /  3.7 km/h 2.3 mph /  3.7 km/h 50 % 0 in /  0.0 mm
22:20 65.5 °F /  18.6 °C 57.4 °F /  14.1 °C 30 in /  1016.8 hPa Calm   1 mph /  1.6 km/h 75 % 0 in /  0.0 mm
22:24 71.4 °F /  21.9 °C 52.3 °F /  11.3 °C 30 in /  1015.8 hPa North 2.3 mph /  3.7 km/h 2.3 mph /  3.7 km/h 51 % 0 in /  0.0 mm
22:29 71.4 °F /  21.9 °C 52.3 °F /  11.3 °C 30 in /  1015.8 hPa SW 2.3 mph /  3.7 km/h 2.3 mph /  3.7 km/h 51 % 0 in /  0.0 mm
22:30 65.3 °F /  18.5 °C 57.2 °F /  14.0 °C 30 in /  1016.8 hPa Calm     75 % 0 in /  0.0 mm
22:34 70.9 °F /  21.6 °C 51.8 °F /  11.0 °C 30 in /  1015.8 hPa WSW 3.5 mph /  5.6 km/h 3.5 mph /  5.6 km/h 51 % 0 in /  0.0 mm
22:39 70.5 °F /  21.4 °C 51.4 °F /  10.8 °C 30 in /  1015.8 hPa Calm     51 % 0 in /  0.0 mm
22:40 64.9 °F /  18.3 °C 57.2 °F /  14.0 °C 30 in /  1015.8 hPa NNE 1 mph /  1.6 km/h 3 mph /  4.8 km/h 76 % 0 in /  0.0 mm
22:44 70.3 °F /  21.3 °C 51.3 °F /  10.7 °C 30 in /  1015.8 hPa NNE 2.3 mph /  3.7 km/h 2.3 mph /  3.7 km/h 51 % 0 in /  0.0 mm
22:49 70.2 °F /  21.2 °C 51.3 °F /  10.7 °C 30 in /  1015.8 hPa NNW 1.2 mph /  1.9 km/h   51 % 0 in /  0.0 mm
22:50 64.8 °F /  18.2 °C 57 °F /  13.9 °C 30 in /  1016.8 hPa NE 1 mph /  1.6 km/h 3 mph /  4.8 km/h 76 % 0 in /  0.0 mm
22:54 70 °F /  21.1 °C 51.1 °F /  10.6 °C 30 in /  1015.8 hPa West 2.4 mph /  3.9 km/h 2.4 mph /  3.9 km/h 51 % 0 in /  0.0 mm
22:59 69.8 °F /  21.0 °C 50.9 °F /  10.5 °C 30 in /  1015.8 hPa WSW 1.6 mph /  2.6 km/h   51 % 0 in /  0.0 mm
23:00 64.4 °F /  18.0 °C 56.3 °F /  13.5 °C 30 in /  1016.8 hPa Calm   2 mph /  3.2 km/h 75 % 0 in /  0.0 mm
23:04 69.6 °F /  20.9 °C 51.3 °F /  10.7 °C 30 in /  1015.8 hPa SW 2.9 mph /  4.7 km/h   52 % 0 in /  0.0 mm
23:09 68.9 °F /  20.5 °C 50.5 °F /  10.3 °C 30 in /  1015.8 hPa SW 3.5 mph /  5.6 km/h 3.5 mph /  5.6 km/h 52 % 0 in /  0.0 mm
23:10 64.2 °F /  17.9 °C 55.8 °F /  13.2 °C 30 in /  1016.8 hPa NE 1 mph /  1.6 km/h 2 mph /  3.2 km/h 74 % 0 in /  0.0 mm
23:15 68.7 °F /  20.4 °C 50.9 °F /  10.5 °C 30 in /  1015.8 hPa WSW 2.3 mph /  3.7 km/h 2.4 mph /  3.9 km/h 53 % 0 in /  0.0 mm
23:20 68.5 °F /  20.3 °C 50.7 °F /  10.4 °C 30 in /  1015.8 hPa WSW 3.5 mph /  5.6 km/h 3.5 mph /  5.6 km/h 53 % 0 in /  0.0 mm
23:25 68.5 °F /  20.3 °C 50.7 °F /  10.4 °C 30 in /  1015.8 hPa WSW 2.3 mph /  3.7 km/h 2.3 mph /  3.7 km/h 53 % 0 in /  0.0 mm
23:30 68.4 °F /  20.2 °C 50.5 °F /  10.3 °C 30 in /  1015.8 hPa WSW 1.2 mph /  1.9 km/h   53 % 0 in /  0.0 mm
23:35 68.4 °F /  20.2 °C 50.5 °F /  10.3 °C 30 in /  1015.8 hPa WNW 1.2 mph /  1.9 km/h   53 % 0 in /  0.0 mm
23:40 68.2 °F /  20.1 °C 50.9 °F /  10.5 °C 30 in /  1015.8 hPa WNW 1.2 mph /  1.9 km/h   54 % 0 in /  0.0 mm
23:45 68.2 °F /  20.1 °C 50.9 °F /  10.5 °C 30 in /  1015.8 hPa Calm     54 % 0 in /  0.0 mm
23:50 68.2 °F /  20.1 °C 50.9 °F /  10.5 °C 30 in /  1015.8 hPa Calm     54 % 0 in /  0.0 mm
23:55 68.2 °F /  20.1 °C 50.9 °F /  10.5 °C 30 in /  1015.8 hPa Calm     54 % 0 in /  0.0 mm
Meteo Sesrovires
Elogis d' Weather Underground - 3.5 mb

Guio original per  Jim McMurry - jmcmurry@mwt.net Adaptat per a la plantilla per  Wim van der Kuil - Leuven-Template.eu

Trobareu la nostra informacio del temps tambe a:

Weather Underground

AWEKAS